createdAt,value
2023-04-18T00:00:46.137Z,20.25
2023-04-18T00:03:16.625Z,24.75
2023-04-18T00:05:44.147Z,24.52
2023-04-18T00:08:11.668Z,22.90
2023-04-18T00:10:38.913Z,19.45
2023-04-18T00:13:05.934Z,21.98
2023-04-18T00:15:35.506Z,21.38
2023-04-18T00:18:06.187Z,20.85
2023-04-18T00:20:33.616Z,18.75
2023-04-18T00:23:01.807Z,23.23
2023-04-18T00:25:29.213Z,20.08
2023-04-18T00:27:56.208Z,19.52
2023-04-18T00:30:24.666Z,21.25
2023-04-18T00:32:51.821Z,19.85
2023-04-18T00:35:19.548Z,19.67
2023-04-18T00:37:46.593Z,21.25
2023-04-18T00:40:16.106Z,20.35
2023-04-18T00:42:43.314Z,24.00
2023-04-18T00:45:10.851Z,20.00
2023-04-18T00:47:37.863Z,21.58
2023-04-18T00:50:06.151Z,21.70
2023-04-18T00:52:35.866Z,19.27
2023-04-18T00:55:07.028Z,22.38
2023-04-18T00:57:34.710Z,19.90
2023-04-18T01:00:10.063Z,17.83
2023-04-18T01:02:39.575Z,20.42
2023-04-18T01:05:07.997Z,18.65
2023-04-18T01:07:38.047Z,23.60
2023-04-18T01:10:05.931Z,22.77
2023-04-18T01:12:32.949Z,22.05
2023-04-18T01:15:00.757Z,25.25
2023-04-18T01:17:30.604Z,25.90
2023-04-18T01:19:57.953Z,24.27
2023-04-18T01:22:26.928Z,25.85
2023-04-18T01:24:54.228Z,19.88
2023-04-18T01:27:21.307Z,20.42
2023-04-18T01:29:48.604Z,23.80
2023-04-18T01:32:18.052Z,23.02
2023-04-18T01:34:47.404Z,22.13
2023-04-18T01:37:14.746Z,24.08
2023-04-18T01:39:42.118Z,23.98
2023-04-18T01:42:09.139Z,23.85
2023-04-18T01:44:37.912Z,23.77
2023-04-18T01:47:05.952Z,22.08
2023-04-18T01:49:33.445Z,19.45
2023-04-18T01:52:00.421Z,21.90
2023-04-18T01:54:27.742Z,21.00
2023-04-18T01:56:54.774Z,22.55
2023-04-18T01:59:22.726Z,21.83
2023-04-18T02:01:49.807Z,20.13
2023-04-18T02:04:18.218Z,19.77
2023-04-18T02:06:46.905Z,20.83
2023-04-18T02:09:14.178Z,22.63
2023-04-18T02:11:43.465Z,24.40
2023-04-18T02:14:10.884Z,28.35
2023-04-18T02:16:38.907Z,26.60
2023-04-18T02:19:06.369Z,26.25
2023-04-18T02:21:34.526Z,23.17
2023-04-18T02:24:01.816Z,22.88
2023-04-18T02:26:28.888Z,20.70
2023-04-18T02:28:58.871Z,26.25
2023-04-18T02:31:25.979Z,20.15
2023-04-18T02:33:53.297Z,21.88
2023-04-18T02:36:22.169Z,21.90
2023-04-18T02:38:49.607Z,25.45
2023-04-18T02:41:20.907Z,20.80
2023-04-18T02:43:48.398Z,25.05
2023-04-18T02:46:17.566Z,22.75
2023-04-18T02:48:47.818Z,21.52
2023-04-18T02:51:16.443Z,21.60
2023-04-18T02:53:43.724Z,28.02
2023-04-18T02:56:11.774Z,22.80
2023-04-18T02:58:57.725Z,27.08
2023-04-18T03:01:59.888Z,24.92
2023-04-18T03:04:27.469Z,23.67
2023-04-18T03:06:59.398Z,24.45
2023-04-18T03:09:28.132Z,23.33
2023-04-18T03:12:02.306Z,29.92
2023-04-18T03:16:59.634Z,24.38
2023-04-18T03:19:32.093Z,26.85
2023-04-18T03:22:04.778Z,26.23
2023-04-18T03:24:33.800Z,26.15
2023-04-18T03:27:03.572Z,25.27
2023-04-18T03:29:31.103Z,30.70
2023-04-18T03:31:58.619Z,26.27
2023-04-18T03:34:26.141Z,27.27
2023-04-18T03:36:54.525Z,30.30
2023-04-18T03:39:22.196Z,25.45
2023-04-18T03:41:49.939Z,29.55
2023-04-18T03:44:18.092Z,27.90
2023-04-18T03:46:47.156Z,24.63
2023-04-18T03:49:14.525Z,27.30
2023-04-18T03:51:44.157Z,27.33
2023-04-18T03:56:38.865Z,28.23
2023-04-18T03:59:06.263Z,29.60
2023-04-18T04:01:33.935Z,27.70
2023-04-18T04:04:03.160Z,29.13
2023-04-18T04:06:32.111Z,29.77
2023-04-18T04:09:01.495Z,28.85
2023-04-18T04:11:29.411Z,27.55
2023-04-18T04:13:57.014Z,28.25
2023-04-18T04:16:36.758Z,26.10
2023-04-18T04:19:05.026Z,26.50
2023-04-18T04:21:39.507Z,26.90
2023-04-18T04:24:10.590Z,29.42
2023-04-18T04:26:43.293Z,28.95
2023-04-18T04:29:16.340Z,26.42
2023-04-18T04:31:45.250Z,28.58
2023-04-18T04:34:14.614Z,28.77
2023-04-18T04:36:43.121Z,34.25
2023-04-18T04:39:12.876Z,30.30
2023-04-18T04:42:12.265Z,30.35
2023-04-18T04:44:50.442Z,27.50
2023-04-18T04:47:17.625Z,26.55
2023-04-18T04:49:45.212Z,29.02
2023-04-18T04:52:12.240Z,26.33
2023-04-18T04:54:39.831Z,28.30
2023-04-18T04:57:09.841Z,27.52
2023-04-18T04:59:37.193Z,31.55
2023-04-18T05:02:05.993Z,28.17
2023-04-18T05:04:33.520Z,26.13
2023-04-18T05:07:00.556Z,29.20
2023-04-18T05:09:27.913Z,26.83
2023-04-18T05:11:54.917Z,32.25
2023-04-18T05:14:22.661Z,28.98
2023-04-18T05:16:49.782Z,29.98
2023-04-18T05:19:17.182Z,25.20
2023-04-18T05:21:44.152Z,26.25
2023-04-18T05:24:11.600Z,25.15
2023-04-18T05:26:38.725Z,25.75
2023-04-18T05:29:06.025Z,30.10
2023-04-18T05:31:33.187Z,24.40
2023-04-18T05:34:00.588Z,29.05
2023-04-18T05:36:27.763Z,27.80
2023-04-18T05:38:55.032Z,27.40
2023-04-18T05:41:22.924Z,25.90
2023-04-18T05:44:01.825Z,25.65
2023-04-18T05:46:32.585Z,23.60
2023-04-18T05:49:00.058Z,22.77
2023-04-18T05:51:28.662Z,23.58
2023-04-18T05:53:56.030Z,21.60
2023-04-18T05:56:23.046Z,26.05
2023-04-18T05:58:51.344Z,21.13
2023-04-18T06:01:18.714Z,24.85
2023-04-18T06:03:47.211Z,21.80
2023-04-18T06:06:15.505Z,19.58
2023-04-18T06:08:43.272Z,24.20
2023-04-18T06:11:10.608Z,20.55
2023-04-18T06:13:37.930Z,20.15
2023-04-18T06:16:05.392Z,21.73
2023-04-18T06:18:32.927Z,20.92
2023-04-18T06:21:00.287Z,20.02
2023-04-18T06:23:27.571Z,21.63
2023-04-18T06:25:54.887Z,22.25
2023-04-18T06:28:22.370Z,22.60
2023-04-18T06:30:49.361Z,23.05
2023-04-18T06:33:16.712Z,20.95
2023-04-18T06:35:43.793Z,22.38
2023-04-18T06:38:11.603Z,23.13
2023-04-18T06:40:38.554Z,18.20
2023-04-18T06:43:05.991Z,17.85
2023-04-18T06:45:33.191Z,20.33
2023-04-18T06:48:03.306Z,21.30
2023-04-18T06:50:30.584Z,21.08
2023-04-18T06:52:58.099Z,16.42
2023-04-18T06:55:25.060Z,21.88
2023-04-18T06:57:52.945Z,20.05
2023-04-18T07:00:20.215Z,19.15
2023-04-18T07:02:48.209Z,18.80
2023-04-18T07:05:15.352Z,23.23
2023-04-18T07:07:42.695Z,22.00
2023-04-18T07:10:11.424Z,21.80
2023-04-18T07:12:38.794Z,16.58
2023-04-18T07:15:06.409Z,20.05
2023-04-18T07:17:33.924Z,16.00
2023-04-18T07:20:01.349Z,19.33
2023-04-18T07:22:28.911Z,17.13
2023-04-18T07:24:55.870Z,16.88
2023-04-18T07:27:23.188Z,17.38
2023-04-18T07:29:50.303Z,18.50
2023-04-18T07:32:17.780Z,20.75
2023-04-18T07:34:45.061Z,19.20
2023-04-18T07:37:14.844Z,16.40
2023-04-18T07:39:42.372Z,16.17
2023-04-18T07:42:11.352Z,15.75
2023-04-18T07:44:38.442Z,18.33
2023-04-18T07:47:11.138Z,19.23
2023-04-18T07:49:38.706Z,19.77
2023-04-18T07:52:06.041Z,15.07
2023-04-18T07:54:33.048Z,13.32
2023-04-18T07:57:00.876Z,22.15
2023-04-18T07:59:29.689Z,16.40
2023-04-18T08:01:57.024Z,19.45
2023-04-18T08:04:24.368Z,18.20
2023-04-18T08:06:52.857Z,15.82
2023-04-18T08:09:20.677Z,18.20
2023-04-18T08:11:48.015Z,24.67
2023-04-18T08:14:15.034Z,24.58
2023-04-18T08:16:42.469Z,17.20
2023-04-18T08:19:09.638Z,18.95
2023-04-18T08:21:37.040Z,18.27
2023-04-18T08:24:05.054Z,19.02
2023-04-18T08:26:32.408Z,19.50
2023-04-18T08:28:59.364Z,18.70
2023-04-18T08:31:27.588Z,20.17
2023-04-18T08:33:54.641Z,21.08
2023-04-18T08:36:22.578Z,17.40
2023-04-18T08:38:49.577Z,20.30
2023-04-18T08:41:20.851Z,21.17
2023-04-18T08:43:48.952Z,16.85
2023-04-18T08:46:17.276Z,19.33
2023-04-18T08:48:44.589Z,20.70
2023-04-18T08:51:12.259Z,25.67
2023-04-18T08:53:39.776Z,22.88
2023-04-18T08:56:10.351Z,18.65
2023-04-18T08:58:37.509Z,17.15
2023-04-18T09:01:05.148Z,20.15
2023-04-18T09:03:43.184Z,19.42
2023-04-18T09:06:19.284Z,16.73
2023-04-18T09:08:58.698Z,17.52
2023-04-18T09:11:29.111Z,20.02
2023-04-18T09:13:58.713Z,15.68
2023-04-18T09:16:27.778Z,21.73
2023-04-18T09:19:18.458Z,24.23
2023-04-18T09:21:47.201Z,23.58
2023-04-18T09:24:27.082Z,21.60
2023-04-18T09:26:56.865Z,22.38
2023-04-18T09:29:43.445Z,18.48
2023-04-18T09:32:11.208Z,19.48
2023-04-18T09:34:42.509Z,17.45
2023-04-18T09:37:11.962Z,17.08
2023-04-18T09:39:43.680Z,17.60
2023-04-18T09:42:11.484Z,15.88
2023-04-18T09:44:57.331Z,16.42
2023-04-18T09:47:24.670Z,16.75
2023-04-18T09:49:52.517Z,17.23
2023-04-18T09:52:21.067Z,19.08
2023-04-18T09:54:49.672Z,16.65
2023-04-18T09:57:18.016Z,16.50
2023-04-18T09:59:51.704Z,14.20
2023-04-18T10:02:23.039Z,17.90
2023-04-18T10:04:52.425Z,16.08
2023-04-18T10:07:20.874Z,17.70
2023-04-18T10:09:49.253Z,15.07
2023-04-18T10:12:18.484Z,17.15
2023-04-18T10:14:46.089Z,15.63
2023-04-18T10:17:14.843Z,13.13
2023-04-18T10:19:44.352Z,17.65
2023-04-18T10:24:49.852Z,16.67
2023-04-18T10:27:18.433Z,14.80
2023-04-18T10:29:54.538Z,14.13
2023-04-18T10:32:25.004Z,18.15
2023-04-18T10:34:54.869Z,19.52
2023-04-18T10:37:22.213Z,15.90
2023-04-18T10:40:00.260Z,16.92
2023-04-18T10:42:51.879Z,16.27
2023-04-18T10:45:23.341Z,17.02
2023-04-18T10:47:51.234Z,14.27
2023-04-18T10:50:18.221Z,16.63
2023-04-18T10:52:45.723Z,15.00
2023-04-18T10:55:17.438Z,15.88
2023-04-18T10:57:45.824Z,14.00
2023-04-18T11:00:18.589Z,14.10
2023-04-18T11:02:56.011Z,17.42
2023-04-18T11:05:27.033Z,14.82
2023-04-18T11:07:55.393Z,13.50
2023-04-18T11:10:25.535Z,15.73
2023-04-18T11:12:54.647Z,15.02
2023-04-18T11:15:23.842Z,14.82
2023-04-18T11:18:02.511Z,15.93
2023-04-18T11:20:37.296Z,16.38
2023-04-18T11:23:04.638Z,16.83
2023-04-18T11:25:36.595Z,17.10
2023-04-18T11:28:04.613Z,14.65
2023-04-18T11:30:38.711Z,15.93
2023-04-18T11:33:08.374Z,17.77
2023-04-18T11:35:40.350Z,16.88
2023-04-18T11:38:08.614Z,16.17
2023-04-18T11:40:36.942Z,17.50
2023-04-18T11:43:06.493Z,19.25
2023-04-18T11:45:34.136Z,19.25
2023-04-18T11:48:01.653Z,20.70
2023-04-18T11:50:28.975Z,15.05
2023-04-18T11:52:56.468Z,14.73
2023-04-18T11:55:25.221Z,15.18
2023-04-18T11:57:59.307Z,15.03
2023-04-18T12:00:37.250Z,18.25
2023-04-18T12:03:08.484Z,16.17
2023-04-18T12:05:38.305Z,17.52
2023-04-18T12:08:08.083Z,17.80
2023-04-18T12:10:36.071Z,16.37
2023-04-18T12:13:08.088Z,19.58
2023-04-18T12:15:43.505Z,16.35
2023-04-18T12:18:12.903Z,17.77
2023-04-18T12:20:49.872Z,19.80
2023-04-18T12:23:32.476Z,15.70
2023-04-18T12:26:07.392Z,15.15
2023-04-18T12:28:35.587Z,22.20
2023-04-18T12:31:05.902Z,22.85
2023-04-18T12:33:34.148Z,20.48
2023-04-18T12:36:01.314Z,21.95
2023-04-18T12:38:28.752Z,18.73
2023-04-18T12:40:55.918Z,18.55
2023-04-18T12:43:23.324Z,18.38
2023-04-18T12:45:50.445Z,15.77
2023-04-18T12:48:18.023Z,16.90
2023-04-18T12:50:45.055Z,19.70
2023-04-18T12:53:12.365Z,17.70
2023-04-18T12:55:39.404Z,18.75
2023-04-18T12:58:06.744Z,23.10
2023-04-18T13:00:33.884Z,18.40
2023-04-18T13:03:01.407Z,17.45
2023-04-18T13:05:33.001Z,15.60
2023-04-18T13:10:32.223Z,15.20
2023-04-18T13:12:59.630Z,15.20
2023-04-18T13:15:27.585Z,16.10
2023-04-18T13:17:56.381Z,18.52
2023-04-18T13:20:23.396Z,21.20
2023-04-18T13:22:50.765Z,18.67
2023-04-18T13:25:17.809Z,14.93
2023-04-18T13:27:45.917Z,19.13
2023-04-18T13:30:13.505Z,18.42
2023-04-18T13:32:41.237Z,15.73
2023-04-18T13:35:11.037Z,16.42
2023-04-18T13:37:39.453Z,15.63
2023-04-18T13:40:07.991Z,16.48
2023-04-18T13:42:38.771Z,15.45
2023-04-18T13:45:06.245Z,15.63
2023-04-18T13:47:33.691Z,17.23
2023-04-18T13:50:01.086Z,14.35
2023-04-18T13:52:28.770Z,14.98
2023-04-18T13:54:55.811Z,14.73
2023-04-18T13:57:23.438Z,16.35
2023-04-18T13:59:50.453Z,17.70
2023-04-18T14:02:18.033Z,15.82
2023-04-18T14:04:46.532Z,13.60
2023-04-18T14:07:14.046Z,16.90
2023-04-18T14:09:40.974Z,16.08
2023-04-18T14:12:08.399Z,14.23
2023-04-18T14:14:35.463Z,13.35
2023-04-18T14:17:02.777Z,14.65
2023-04-18T14:19:29.926Z,16.35
2023-04-18T14:21:57.255Z,17.95
2023-04-18T14:24:24.408Z,13.60
2023-04-18T14:26:51.689Z,15.50
2023-04-18T14:29:18.752Z,14.93
2023-04-18T14:31:46.307Z,15.27
2023-04-18T14:34:13.590Z,18.40
2023-04-18T14:36:41.140Z,14.48
2023-04-18T14:39:08.427Z,13.35
2023-04-18T14:41:35.807Z,14.32
2023-04-18T14:44:04.064Z,13.77
2023-04-18T14:46:31.546Z,13.98
2023-04-18T14:48:59.976Z,16.58
2023-04-18T14:51:27.701Z,11.35
2023-04-18T14:53:55.709Z,11.88
2023-04-18T14:56:24.248Z,14.55
2023-04-18T14:58:51.550Z,14.80
2023-04-18T15:01:19.186Z,14.18
2023-04-18T15:03:46.784Z,14.30
2023-04-18T15:06:14.221Z,13.85
2023-04-18T15:08:44.071Z,18.25
2023-04-18T15:11:11.436Z,16.92
2023-04-18T15:13:38.748Z,14.63
2023-04-18T15:16:06.902Z,13.43
2023-04-18T15:18:34.319Z,11.23
2023-04-18T15:21:02.114Z,11.70
2023-04-18T15:23:29.673Z,13.82
2023-04-18T15:25:57.657Z,11.55
2023-04-18T15:28:25.799Z,11.82
2023-04-18T15:30:53.543Z,12.55
2023-04-18T15:33:21.219Z,14.35
2023-04-18T15:35:48.893Z,13.60
2023-04-18T15:38:16.487Z,17.80
2023-04-18T15:40:44.678Z,12.65
2023-04-18T15:43:13.807Z,10.65
2023-04-18T15:45:41.458Z,10.98
2023-04-18T15:48:10.326Z,12.68
2023-04-18T15:50:39.090Z,10.60
2023-04-18T15:53:06.153Z,10.05
2023-04-18T15:55:34.440Z,11.77
2023-04-18T15:58:01.756Z,11.70
2023-04-18T16:00:29.299Z,11.02
2023-04-18T16:02:56.621Z,13.00
2023-04-18T16:05:24.209Z,12.38
2023-04-18T16:07:53.763Z,11.15
2023-04-18T16:12:48.442Z,15.43
2023-04-18T16:15:16.068Z,9.77
2023-04-18T16:17:43.208Z,10.35
2023-04-18T16:20:10.841Z,15.00
2023-04-18T16:22:37.905Z,11.23
2023-04-18T16:25:06.172Z,12.43
2023-04-18T16:27:33.526Z,8.73
2023-04-18T16:30:01.157Z,9.90
2023-04-18T16:32:28.716Z,9.32
2023-04-18T16:34:56.207Z,7.28
2023-04-18T16:37:23.569Z,6.88
2023-04-18T16:39:51.129Z,11.30
2023-04-18T16:42:18.281Z,8.60
2023-04-18T16:44:45.856Z,5.88
2023-04-18T16:47:12.978Z,9.25
2023-04-18T16:49:41.401Z,8.45
2023-04-18T16:52:08.615Z,5.40
2023-04-18T16:54:36.039Z,11.32
2023-04-18T16:57:03.414Z,9.80
2023-04-18T16:59:31.188Z,4.93
2023-04-18T17:01:59.280Z,4.20
2023-04-18T17:04:27.320Z,4.22
2023-04-18T17:06:57.668Z,7.78
2023-04-18T17:09:25.361Z,6.07
2023-04-18T17:11:52.640Z,7.47
2023-04-18T17:14:20.823Z,4.40
2023-04-18T17:16:48.848Z,4.50
2023-04-18T17:19:17.620Z,7.88
2023-04-18T17:21:45.023Z,9.35
2023-04-18T17:24:12.649Z,10.18
2023-04-18T17:26:39.753Z,6.90
2023-04-18T17:29:07.738Z,6.85
2023-04-18T17:31:34.990Z,8.93
2023-04-18T17:34:03.798Z,7.78
2023-04-18T17:36:31.053Z,6.00
2023-04-18T17:39:08.304Z,7.95
2023-04-18T17:41:39.180Z,5.72
2023-04-18T17:44:09.057Z,6.80
2023-04-18T17:46:37.387Z,8.15
2023-04-18T17:49:05.888Z,7.40
2023-04-18T17:51:33.774Z,8.77
2023-04-18T17:54:02.678Z,8.98
2023-04-18T17:56:36.728Z,9.55
2023-04-18T17:59:04.803Z,9.38
2023-04-18T18:01:33.392Z,8.57
2023-04-18T18:04:06.037Z,11.82
2023-04-18T18:06:33.911Z,9.18
2023-04-18T18:09:01.797Z,11.55
2023-04-18T18:11:29.595Z,10.20
2023-04-18T18:14:04.959Z,8.50
2023-04-18T18:16:42.101Z,9.38
2023-04-18T18:19:15.493Z,19.67
2023-04-18T18:21:43.754Z,12.52
2023-04-18T18:24:13.846Z,8.35
2023-04-18T18:26:42.876Z,8.68
2023-04-18T18:29:12.701Z,12.10
2023-04-18T18:31:42.093Z,15.23
2023-04-18T18:34:15.104Z,13.07
2023-04-18T18:36:42.907Z,8.82
2023-04-18T18:39:22.669Z,9.82
2023-04-18T18:41:57.305Z,10.40
2023-04-18T18:44:25.801Z,7.47
2023-04-18T18:46:54.684Z,8.75
2023-04-18T18:49:27.179Z,9.07
2023-04-18T18:51:55.478Z,9.52
2023-04-18T18:54:32.605Z,10.38
2023-04-18T18:57:03.733Z,12.65
2023-04-18T18:59:35.517Z,8.02
2023-04-18T19:02:04.754Z,9.00
2023-04-18T19:04:34.012Z,6.90
2023-04-18T19:07:02.411Z,11.87
2023-04-18T19:09:35.925Z,6.57
2023-04-18T19:12:05.653Z,8.98
2023-04-18T19:14:37.838Z,8.90
2023-04-18T19:17:07.585Z,8.82
2023-04-18T19:19:44.804Z,6.75
2023-04-18T19:22:15.987Z,11.65
2023-04-18T19:24:51.959Z,10.50
2023-04-18T19:27:29.509Z,7.75
2023-04-18T19:29:58.312Z,9.57
2023-04-18T19:32:27.621Z,8.23
2023-04-18T19:34:59.203Z,10.07
2023-04-18T19:37:28.364Z,14.02
2023-04-18T19:39:57.057Z,5.80
2023-04-18T19:42:28.504Z,5.20
2023-04-18T19:44:57.733Z,10.85
2023-04-18T19:47:27.621Z,10.43
2023-04-18T19:50:02.159Z,7.68
2023-04-18T19:52:33.061Z,8.38
2023-04-18T19:55:02.148Z,7.97
2023-04-18T19:57:39.235Z,6.88
2023-04-18T20:00:13.330Z,7.10
2023-04-18T20:02:47.498Z,9.65
2023-04-18T20:05:30.037Z,9.05
2023-04-18T20:08:03.563Z,5.85
2023-04-18T20:10:35.052Z,7.72
2023-04-18T20:13:03.562Z,9.25
2023-04-18T20:15:37.427Z,5.97
2023-04-18T20:18:07.261Z,6.68
2023-04-18T20:20:38.288Z,7.30
2023-04-18T20:23:09.056Z,10.30
2023-04-18T20:25:37.094Z,6.80
2023-04-18T20:28:05.069Z,7.32
2023-04-18T20:30:33.230Z,7.43
2023-04-18T20:33:06.542Z,10.27
2023-04-18T20:35:38.388Z,9.98
2023-04-18T20:38:07.357Z,7.43
2023-04-18T20:40:39.065Z,9.10
2023-04-18T20:43:09.265Z,9.20
2023-04-18T20:45:45.263Z,8.38
2023-04-18T20:48:12.762Z,11.45
2023-04-18T20:50:43.384Z,12.38
2023-04-18T20:53:11.525Z,9.07
2023-04-18T20:55:50.901Z,8.35
2023-04-18T20:58:20.369Z,6.00
2023-04-18T21:00:52.333Z,8.60
2023-04-18T21:03:22.615Z,7.45
2023-04-18T21:05:59.019Z,7.78
2023-04-18T21:08:31.776Z,7.72
2023-04-18T21:10:59.607Z,7.53
2023-04-18T21:13:34.461Z,7.68
2023-04-18T21:16:03.696Z,10.77
2023-04-18T21:18:34.642Z,8.10
2023-04-18T21:21:07.514Z,8.23
2023-04-18T21:23:45.867Z,10.57
2023-04-18T21:26:16.012Z,10.23
2023-04-18T21:31:26.480Z,8.70
2023-04-18T21:33:58.725Z,8.10
2023-04-18T21:36:33.369Z,9.60
2023-04-18T21:39:01.560Z,9.77
2023-04-18T21:41:36.962Z,7.55
2023-04-18T21:44:07.277Z,7.38
2023-04-18T21:46:35.268Z,9.50
2023-04-18T21:49:03.184Z,11.35
2023-04-18T21:51:32.315Z,7.78
2023-04-18T21:53:59.710Z,8.25
2023-04-18T21:56:28.464Z,8.85
2023-04-18T21:58:55.865Z,8.82
2023-04-18T22:01:24.838Z,9.83
2023-04-18T22:03:54.032Z,6.97
2023-04-18T22:06:24.506Z,8.60
2023-04-18T22:08:56.042Z,10.82
2023-04-18T22:11:25.104Z,8.18
2023-04-18T22:13:56.256Z,8.70
2023-04-18T22:16:29.020Z,6.50
2023-04-18T22:18:59.543Z,9.95
2023-04-18T22:21:27.531Z,10.82
2023-04-18T22:23:54.662Z,7.80
2023-04-18T22:26:27.132Z,7.82
2023-04-18T22:28:58.148Z,9.60
2023-04-18T22:31:28.176Z,8.95
2023-04-18T22:33:57.560Z,9.18
2023-04-18T22:36:30.566Z,7.88
2023-04-18T22:39:00.278Z,10.90
2023-04-18T22:41:27.939Z,9.75
2023-04-18T22:44:03.997Z,7.75
2023-04-18T22:46:32.903Z,8.95
2023-04-18T22:49:05.403Z,7.82
2023-04-18T22:51:34.439Z,9.75
2023-04-18T22:54:04.272Z,8.18
2023-04-18T22:56:42.436Z,8.93
2023-04-18T22:59:15.492Z,12.02
2023-04-18T23:01:44.656Z,8.75
2023-04-18T23:04:14.620Z,11.73
2023-04-18T23:06:50.976Z,5.18
2023-04-18T23:09:19.652Z,11.85
2023-04-18T23:11:49.914Z,7.88
2023-04-18T23:14:20.258Z,10.70
2023-04-18T23:16:52.341Z,9.68
2023-04-18T23:19:33.076Z,7.68
2023-04-18T23:22:08.744Z,8.45
2023-04-18T23:24:37.046Z,11.23
2023-04-18T23:27:04.565Z,7.95
2023-04-18T23:29:39.015Z,10.35
2023-04-18T23:32:09.265Z,8.10
2023-04-18T23:34:39.422Z,9.73
2023-04-18T23:37:13.428Z,10.10
2023-04-18T23:39:47.662Z,10.38
2023-04-18T23:42:17.587Z,8.23
2023-04-18T23:44:48.607Z,8.55
2023-04-18T23:47:19.087Z,13.70
2023-04-18T23:49:48.226Z,7.80
2023-04-18T23:52:20.167Z,7.82
2023-04-18T23:54:57.637Z,10.45
2023-04-18T23:57:27.902Z,14.20
